Dades meteomassalio
Diari Summary for Gener 23, 2018 Units:  Both    English   Metric
« Previous Day
Next Day »
Diari Semanal Mensual Anual Personalitzat
  Maxima: Minima: Mijana:
Temperatura: TemperatureC °F /  -17.8 °C 4.4 °F /  -15.3 °C 11.1 °F /  -11.6 °C
Rosada: DewpointC °F /  -17.8 °C 1.5 °F /  -16.9 °C 6.4 °F /  -14.2 °C
Humitat: Humidity % 60 % 73 %
Velocitat del vent: WindSpeedKMH mph /  0 km/h - 10.8 mph /  17.4 km/h
Racha vent: WindSpeedGustKMH mph /  0 km/h - -
Vent:- - WNW
Pressio: PressurehPa in /  0 hPa 1028.7 in /  34831.8 hPa -
Pluja: 0.0 in /  0 mm    
Historical Graphs
 
 
Tabular Data for Gener 23, 2018
Time Temperature Dew Point Pressure Wind Wind Speed Wind Gust Humidity Rainfall Rate (Hourly) solar Conditions
TemperatureC °F /  -17.8 °C DewpointC °F /  -17.8 °C PressurehPa in /  0 hPa Calm     Humidity % HourlyPrecipMM in /  0 mm SolarRadiationWatts/m^2 W/m2 Conditions
00:00 13.3 °F /  -10.4 °C 8.2 °F /  -13.2 °C 1029.3 in /  34852.1 hPa NW 29.0 mph /  46.7 km/h 29.0 mph /  46.7 km/h 71 % 0.0 in /  0 mm 0.0 W/m2 CLR
00:05 12.8 °F /  -10.7 °C 7.7 °F /  -13.5 °C 1029.7 in /  34865.6 hPa NW 24.1 mph /  38.8 km/h 24.1 mph /  38.8 km/h 71 % 0.0 in /  0 mm 0.0 W/m2 CLR
00:10 12.8 °F /  -10.7 °C 7.8 °F /  -13.4 °C 1029.7 in /  34865.6 hPa NW 24.1 mph /  38.8 km/h 24.1 mph /  38.8 km/h 72 % 0.0 in /  0 mm 0.0 W/m2 CLR
00:15 12.8 °F /  -10.7 °C 7.8 °F /  -13.4 °C 1029.7 in /  34865.6 hPa NW 24.1 mph /  38.8 km/h 24.1 mph /  38.8 km/h 72 % 0.0 in /  0 mm 0.0 W/m2 CLR
00:20 12.8 °F /  -10.7 °C 7.8 °F /  -13.4 °C 1029.7 in /  34865.6 hPa WNW 22.2 mph /  35.7 km/h 22.2 mph /  35.7 km/h 72 % 0.0 in /  0 mm 0.0 W/m2 CLR
00:25 12.2 °F /  -11 °C 7.3 °F /  -13.7 °C 1029.7 in /  34865.6 hPa NNW 22.2 mph /  35.7 km/h 22.2 mph /  35.7 km/h 72 % 0.0 in /  0 mm 0.0 W/m2 CLR
00:30 12.2 °F /  -11 °C 7.3 °F /  -13.7 °C 1030.0 in /  34875.8 hPa NNW 13.0 mph /  20.9 km/h 13.0 mph /  20.9 km/h 72 % 0.0 in /  0 mm 0.0 W/m2 CLR
00:35 12.8 °F /  -10.7 °C 7.8 °F /  -13.4 °C 1030.0 in /  34875.8 hPa Calm     72 % 0.0 in /  0 mm 0.0 W/m2 CLR
00:40 12.2 °F /  -11 °C 7.3 °F /  -13.7 °C 1029.7 in /  34865.6 hPa WNW 14.8 mph /  23.8 km/h 14.8 mph /  23.8 km/h 72 % 0.0 in /  0 mm 0.0 W/m2 CLR
00:45 12.2 °F /  -11 °C 7.5 °F /  -13.6 °C 1029.7 in /  34865.6 hPa NW 24.1 mph /  38.8 km/h 24.1 mph /  38.8 km/h 73 % 0.0 in /  0 mm 0.0 W/m2 CLR
00:51 12.8 °F /  -10.7 °C 7.8 °F /  -13.4 °C 1029.7 in /  34865.6 hPa WNW 22.2 mph /  35.7 km/h 22.2 mph /  35.7 km/h 72 % 0.0 in /  0 mm 0.0 W/m2 CLR
00:56 12.8 °F /  -10.7 °C 7.8 °F /  -13.4 °C 1029.7 in /  34865.6 hPa NW 20.4 mph /  32.8 km/h 20.4 mph /  32.8 km/h 72 % 0.0 in /  0 mm 0.0 W/m2 CLR
01:01 12.8 °F /  -10.7 °C 7.8 °F /  -13.4 °C 1029.7 in /  34865.6 hPa NW 29.6 mph /  47.6 km/h 29.6 mph /  47.6 km/h 72 % 0.0 in /  0 mm 0.0 W/m2 CLR
01:06 12.8 °F /  -10.7 °C 7.8 °F /  -13.4 °C 1029.7 in /  34865.6 hPa NW 22.2 mph /  35.7 km/h 22.2 mph /  35.7 km/h 72 % 0.0 in /  0 mm 0.0 W/m2 CLR
01:11 12.8 °F /  -10.7 °C 7.8 °F /  -13.4 °C 1029.3 in /  34852.1 hPa NW 33.3 mph /  53.6 km/h 33.3 mph /  53.6 km/h 72 % 0.0 in /  0 mm 0.0 W/m2 CLR
01:16 12.8 °F /  -10.7 °C 7.8 °F /  -13.4 °C 1029.3 in /  34852.1 hPa NW 22.5 mph /  36.2 km/h 22.5 mph /  36.2 km/h 72 % 0.0 in /  0 mm 0.0 W/m2 CLR
01:21 12.8 °F /  -10.7 °C 7.8 °F /  -13.4 °C 1029.3 in /  34852.1 hPa WNW 22.2 mph /  35.7 km/h 22.2 mph /  35.7 km/h 72 % 0.0 in /  0 mm 0.0 W/m2 CLR
01:26 12.8 °F /  -10.7 °C 8.1 °F /  -13.3 °C 1029.3 in /  34852.1 hPa NW 18.5 mph /  29.8 km/h 18.5 mph /  29.8 km/h 73 % 0.0 in /  0 mm 0.0 W/m2 CLR
01:31 12.8 °F /  -10.7 °C 8.1 °F /  -13.3 °C 1029.3 in /  34852.1 hPa WSW 18.5 mph /  29.8 km/h 18.5 mph /  29.8 km/h 73 % 0.0 in /  0 mm 0.0 W/m2 CLR
01:36 12.8 °F /  -10.7 °C 8.1 °F /  -13.3 °C 1029.3 in /  34852.1 hPa Calm     73 % 0.0 in /  0 mm 0.0 W/m2 CLR
01:41 12.2 °F /  -11 °C 7.5 °F /  -13.6 °C 1029.3 in /  34852.1 hPa SW 1.9 mph /  3.1 km/h   73 % 0.0 in /  0 mm 0.0 W/m2 CLR
01:46 12.2 °F /  -11 °C 7.7 °F /  -13.5 °C 1029.3 in /  34852.1 hPa Calm     74 % 0.0 in /  0 mm 0.0 W/m2 CLR
01:56 11.7 °F /  -11.3 °C 7.2 °F /  -13.8 °C 1029.3 in /  34852.1 hPa WNW 16.7 mph /  26.9 km/h 16.7 mph /  26.9 km/h 74 % 0.0 in /  0 mm 0.0 W/m2 CLR
02:01 11.7 °F /  -11.3 °C 7.2 °F /  -13.8 °C 1029.0 in /  34841.9 hPa WNW 16.7 mph /  26.9 km/h 16.7 mph /  26.9 km/h 74 % 0.0 in /  0 mm 0.0 W/m2 CLR
02:06 11.7 °F /  -11.3 °C 7.0 °F /  -13.9 °C 1029.3 in /  34852.1 hPa NW 20.4 mph /  32.8 km/h 20.4 mph /  32.8 km/h 73 % 0.0 in /  0 mm 0.0 W/m2 CLR
02:11 11.7 °F /  -11.3 °C 7.0 °F /  -13.9 °C 1029.3 in /  34852.1 hPa NW 11.3 mph /  18.2 km/h 11.3 mph /  18.2 km/h 73 % 0.0 in /  0 mm 0.0 W/m2 CLR
02:26 11.1 °F /  -11.6 °C 6.4 °F /  -14.2 °C 1029.0 in /  34841.9 hPa WNW 3.7 mph /  6 km/h 3.7 mph /  6 km/h 73 % 0.0 in /  0 mm 0.0 W/m2 CLR
02:31 11.1 °F /  -11.6 °C 6.7 °F /  -14.1 °C 1029.0 in /  34841.9 hPa WNW 9.3 mph /  15 km/h 9.3 mph /  15 km/h 74 % 0.0 in /  0 mm 0.0 W/m2 CLR
02:36 11.1 °F /  -11.6 °C 6.7 °F /  -14.1 °C 1029.0 in /  34841.9 hPa West 13.0 mph /  20.9 km/h 13.0 mph /  20.9 km/h 74 % 0.0 in /  0 mm 0.0 W/m2 CLR
02:41 11.1 °F /  -11.6 °C 6.7 °F /  -14.1 °C 1029.0 in /  34841.9 hPa NW 14.8 mph /  23.8 km/h 14.8 mph /  23.8 km/h 74 % 0.0 in /  0 mm 0.0 W/m2 CLR
02:46 11.1 °F /  -11.6 °C 6.7 °F /  -14.1 °C 1029.0 in /  34841.9 hPa West 11.3 mph /  18.2 km/h 11.3 mph /  18.2 km/h 74 % 0.0 in /  0 mm 0.0 W/m2 CLR
02:51 11.1 °F /  -11.6 °C 6.7 °F /  -14.1 °C 1029.0 in /  34841.9 hPa West 13.0 mph /  20.9 km/h 13.0 mph /  20.9 km/h 74 % 0.0 in /  0 mm 0.0 W/m2 CLR
02:56 11.1 °F /  -11.6 °C 6.7 °F /  -14.1 °C 1029.0 in /  34841.9 hPa WSW 14.8 mph /  23.8 km/h 14.8 mph /  23.8 km/h 74 % 0.0 in /  0 mm 0.0 W/m2 CLR
03:01 11.7 °F /  -11.3 °C 7.4 °F /  -13.7 °C 1029.0 in /  34841.9 hPa WNW 11.1 mph /  17.9 km/h 11.1 mph /  17.9 km/h 75 % 0.0 in /  0 mm 0.0 W/m2 CLR
03:06 11.1 °F /  -11.6 °C 6.8 °F /  -14 °C 1029.0 in /  34841.9 hPa WNW 14.8 mph /  23.8 km/h 14.8 mph /  23.8 km/h 75 % 0.0 in /  0 mm 0.0 W/m2 CLR
03:11 11.1 °F /  -11.6 °C 6.8 °F /  -14 °C 1029.0 in /  34841.9 hPa WNW 16.7 mph /  26.9 km/h 16.7 mph /  26.9 km/h 75 % 0.0 in /  0 mm 0.0 W/m2 CLR
03:21 10.6 °F /  -11.9 °C 6.3 °F /  -14.3 °C 1029.0 in /  34841.9 hPa WNW 16.1 mph /  25.9 km/h 16.1 mph /  25.9 km/h 75 % 0.0 in /  0 mm 0.0 W/m2 CLR
03:26 10.6 °F /  -11.9 °C 6.3 °F /  -14.3 °C 1029.0 in /  34841.9 hPa WNW 14.8 mph /  23.8 km/h 14.8 mph /  23.8 km/h 75 % 0.0 in /  0 mm 0.0 W/m2 CLR
03:31 10.6 °F /  -11.9 °C 6.3 °F /  -14.3 °C 1029.0 in /  34841.9 hPa West 7.4 mph /  11.9 km/h 7.4 mph /  11.9 km/h 75 % 0.0 in /  0 mm 0.0 W/m2 CLR
03:41 10.0 °F /  -12.2 °C 5.8 °F /  -14.6 °C 1028.7 in /  34831.8 hPa Calm     75 % 0.0 in /  0 mm 0.0 W/m2 CLR
03:46 10.0 °F /  -12.2 °C 5.8 °F /  -14.6 °C 1028.7 in /  34831.8 hPa West 5.6 mph /  9 km/h 5.6 mph /  9 km/h 75 % 0.0 in /  0 mm 0.0 W/m2 CLR
03:51 10.0 °F /  -12.2 °C 5.9 °F /  -14.5 °C 1028.7 in /  34831.8 hPa West 14.8 mph /  23.8 km/h 14.8 mph /  23.8 km/h 76 % 0.0 in /  0 mm 0.0 W/m2 CLR
03:56 10.0 °F /  -12.2 °C 5.9 °F /  -14.5 °C 1028.7 in /  34831.8 hPa WNW 16.7 mph /  26.9 km/h 16.7 mph /  26.9 km/h 76 % 0.0 in /  0 mm 0.0 W/m2 CLR
04:01 10.0 °F /  -12.2 °C 5.8 °F /  -14.6 °C 1028.7 in /  34831.8 hPa WNW 13.0 mph /  20.9 km/h 13.0 mph /  20.9 km/h 75 % 0.0 in /  0 mm 0.0 W/m2 CLR
04:06 10.0 °F /  -12.2 °C 5.8 °F /  -14.6 °C 1028.7 in /  34831.8 hPa NW 20.4 mph /  32.8 km/h 20.4 mph /  32.8 km/h 75 % 0.0 in /  0 mm 0.0 W/m2 CLR
04:11 10.6 °F /  -11.9 °C 6.3 °F /  -14.3 °C 1028.7 in /  34831.8 hPa NW 16.7 mph /  26.9 km/h 16.7 mph /  26.9 km/h 75 % 0.0 in /  0 mm 0.0 W/m2 CLR
04:21 11.1 °F /  -11.6 °C 6.7 °F /  -14.1 °C 1028.7 in /  34831.8 hPa NW 14.8 mph /  23.8 km/h 14.8 mph /  23.8 km/h 74 % 0.0 in /  0 mm 0.0 W/m2 CLR
04:26 11.1 °F /  -11.6 °C 6.8 °F /  -14 °C 1029.0 in /  34841.9 hPa WNW 18.5 mph /  29.8 km/h 18.5 mph /  29.8 km/h 75 % 0.0 in /  0 mm 0.0 W/m2 CLR
04:31 11.1 °F /  -11.6 °C 6.7 °F /  -14.1 °C 1029.0 in /  34841.9 hPa WNW 11.1 mph /  17.9 km/h 11.1 mph /  17.9 km/h 74 % 0.0 in /  0 mm 0.0 W/m2 CLR
04:41 10.6 °F /  -11.9 °C 6.3 °F /  -14.3 °C 1029.0 in /  34841.9 hPa NW 14.8 mph /  23.8 km/h 14.8 mph /  23.8 km/h 75 % 0.0 in /  0 mm 0.0 W/m2 CLR
04:51 10.6 °F /  -11.9 °C 6.3 °F /  -14.3 °C 1029.0 in /  34841.9 hPa WNW 11.1 mph /  17.9 km/h 11.1 mph /  17.9 km/h 75 % 0.0 in /  0 mm 0.0 W/m2 CLR
04:56 10.0 °F /  -12.2 °C 5.8 °F /  -14.6 °C 1029.0 in /  34841.9 hPa West 9.3 mph /  15 km/h 9.3 mph /  15 km/h 75 % 0.0 in /  0 mm 0.0 W/m2 CLR
05:01 9.4 °F /  -12.6 °C 5.4 °F /  -14.8 °C 1029.0 in /  34841.9 hPa West 9.3 mph /  15 km/h 9.3 mph /  15 km/h 76 % 0.0 in /  0 mm 0.0 W/m2 CLR
05:06 8.9 °F /  -12.8 °C 5.1 °F /  -14.9 °C 1029.0 in /  34841.9 hPa West 8.0 mph /  12.9 km/h 8.0 mph /  12.9 km/h 77 % 0.0 in /  0 mm 0.0 W/m2 CLR
05:11 8.9 °F /  -12.8 °C 5.1 °F /  -14.9 °C 1029.0 in /  34841.9 hPa WNW 11.1 mph /  17.9 km/h 11.1 mph /  17.9 km/h 77 % 0.0 in /  0 mm 0.0 W/m2 CLR
05:16 8.3 °F /  -13.2 °C 4.6 °F /  -15.2 °C 1029.0 in /  34841.9 hPa WNW 11.3 mph /  18.2 km/h 11.3 mph /  18.2 km/h 77 % 0.0 in /  0 mm 0.0 W/m2 CLR
05:21 8.3 °F /  -13.2 °C 4.7 °F /  -15.2 °C 1029.0 in /  34841.9 hPa West 9.7 mph /  15.6 km/h 9.7 mph /  15.6 km/h 78 % 0.0 in /  0 mm 0.0 W/m2 CLR
05:26 8.3 °F /  -13.2 °C 4.7 °F /  -15.2 °C 1029.0 in /  34841.9 hPa West 5.6 mph /  9 km/h 5.6 mph /  9 km/h 78 % 0.0 in /  0 mm 0.0 W/m2 CLR
05:31 8.3 °F /  -13.2 °C 4.7 °F /  -15.2 °C 1029.0 in /  34841.9 hPa West 9.3 mph /  15 km/h   78 % 0.0 in /  0 mm 0.0 W/m2 CLR
05:36 8.3 °F /  -13.2 °C 4.7 °F /  -15.2 °C 1029.0 in /  34841.9 hPa West 7.4 mph /  11.9 km/h 7.4 mph /  11.9 km/h 78 % 0.0 in /  0 mm 0.0 W/m2 CLR
05:41 7.8 °F /  -13.4 °C 4.4 °F /  -15.3 °C 1029.0 in /  34841.9 hPa West 18.5 mph /  29.8 km/h 18.5 mph /  29.8 km/h 79 % 0.0 in /  0 mm 0.0 W/m2 CLR
05:46 7.8 °F /  -13.4 °C 4.4 °F /  -15.3 °C 1029.0 in /  34841.9 hPa West 5.6 mph /  9 km/h 5.6 mph /  9 km/h 79 % 0.0 in /  0 mm 0.0 W/m2 CLR
05:56 7.2 °F /  -13.8 °C 3.7 °F /  -15.7 °C 1029.3 in /  34852.1 hPa Calm     78 % 0.0 in /  0 mm 0.0 W/m2 CLR
06:01 6.7 °F /  -14.1 °C 3.3 °F /  -15.9 °C 1029.3 in /  34852.1 hPa West 6.4 mph /  10.3 km/h 6.4 mph /  10.3 km/h 79 % 0.0 in /  0 mm 0.0 W/m2 CLR
06:11 6.7 °F /  -14.1 °C 3.3 °F /  -15.9 °C 1029.3 in /  34852.1 hPa WNW 7.4 mph /  11.9 km/h 7.4 mph /  11.9 km/h 79 % 0.0 in /  0 mm 0.0 W/m2 CLR
06:21 6.1 °F /  -14.4 °C 2.6 °F /  -16.3 °C 1029.3 in /  34852.1 hPa West 3.7 mph /  6 km/h 3.7 mph /  6 km/h 78 % 0.0 in /  0 mm 0.0 W/m2 CLR
06:26 5.6 °F /  -14.7 °C 2.2 °F /  -16.6 °C 1029.3 in /  34852.1 hPa Calm     79 % 0.0 in /  0 mm 0.0 W/m2 CLR
06:31 5.6 °F /  -14.7 °C 2.2 °F /  -16.6 °C 1029.3 in /  34852.1 hPa Calm     79 % 0.0 in /  0 mm 0.0 W/m2 CLR
06:36 5.6 °F /  -14.7 °C 2.2 °F /  -16.6 °C 1029.3 in /  34852.1 hPa Calm     79 % 0.0 in /  0 mm 0.0 W/m2 CLR
06:41 5.6 °F /  -14.7 °C 2.2 °F /  -16.6 °C 1029.3 in /  34852.1 hPa Calm     79 % 0.0 in /  0 mm 0.0 W/m2 CLR
06:46 5.6 °F /  -14.7 °C 2.4 °F /  -16.4 °C 1029.7 in /  34865.6 hPa Calm     80 % 0.0 in /  0 mm 0.0 W/m2 CLR
06:51 5.6 °F /  -14.7 °C 2.6 °F /  -16.3 °C 1029.7 in /  34865.6 hPa West 1.9 mph /  3.1 km/h 1.9 mph /  3.1 km/h 81 % 0.0 in /  0 mm 0.0 W/m2 CLR
06:56 5.6 °F /  -14.7 °C 2.4 °F /  -16.4 °C 1029.7 in /  34865.6 hPa Calm     80 % 0.0 in /  0 mm 0.0 W/m2 CLR
07:01 5.6 °F /  -14.7 °C 2.4 °F /  -16.4 °C 1029.3 in /  34852.1 hPa Calm     80 % 0.0 in /  0 mm 0.0 W/m2 CLR
07:06 6.1 °F /  -14.4 °C 3.1 °F /  -16.1 °C 1029.3 in /  34852.1 hPa WNW 5.6 mph /  9 km/h 5.6 mph /  9 km/h 81 % 0.0 in /  0 mm 0.0 W/m2 CLR
07:11 6.1 °F /  -14.4 °C 3.1 °F /  -16.1 °C 1029.3 in /  34852.1 hPa WNW 6.4 mph /  10.3 km/h 6.4 mph /  10.3 km/h 81 % 0.0 in /  0 mm 0.0 W/m2 CLR
07:21 6.1 °F /  -14.4 °C 2.6 °F /  -16.3 °C 1029.7 in /  34865.6 hPa WNW 3.7 mph /  6 km/h 3.7 mph /  6 km/h 78 % 0.0 in /  0 mm 0.0 W/m2 CLR
07:26 6.1 °F /  -14.4 °C 2.6 °F /  -16.3 °C 1029.7 in /  34865.6 hPa WNW 11.1 mph /  17.9 km/h 11.1 mph /  17.9 km/h 78 % 0.0 in /  0 mm 0.0 W/m2 CLR
07:31 5.6 °F /  -14.7 °C 1.8 °F /  -16.8 °C 1029.3 in /  34852.1 hPa WNW 11.1 mph /  17.9 km/h 11.1 mph /  17.9 km/h 77 % 0.0 in /  0 mm 0.0 W/m2 CLR
07:36 5.6 °F /  -14.7 °C 1.8 °F /  -16.8 °C 1029.7 in /  34865.6 hPa WNW 5.6 mph /  9 km/h 5.6 mph /  9 km/h 77 % 0.0 in /  0 mm 0.0 W/m2 CLR
07:41 5.6 °F /  -14.7 °C 1.8 °F /  -16.8 °C 1029.7 in /  34865.6 hPa Calm     77 % 0.0 in /  0 mm 0.0 W/m2 CLR
07:46 5.6 °F /  -14.7 °C 1.8 °F /  -16.8 °C 1029.7 in /  34865.6 hPa Calm     77 % 0.0 in /  0 mm 0.0 W/m2 CLR
07:51 5.6 °F /  -14.7 °C 2.0 °F /  -16.7 °C 1029.7 in /  34865.6 hPa Calm   0.5 mph /  0.8 km/h 78 % 0.0 in /  0 mm 0.0 W/m2 CLR
07:56 5.6 °F /  -14.7 °C 2.2 °F /  -16.6 °C 1029.7 in /  34865.6 hPa WNW 5.6 mph /  9 km/h 5.6 mph /  9 km/h 79 % 0.0 in /  0 mm 0.0 W/m2 CLR
08:07 5.6 °F /  -14.7 °C 2.2 °F /  -16.6 °C 1029.7 in /  34865.6 hPa West 1.9 mph /  3.1 km/h   79 % 0.0 in /  0 mm 0.0 W/m2 CLR
08:27 5.0 °F /  -15 °C 1.7 °F /  -16.8 °C 1029.7 in /  34865.6 hPa Calm     79 % 0.0 in /  0 mm 14.0 W/m2 BKN
08:32 5.0 °F /  -15 °C 1.5 °F /  -16.9 °C 1030.0 in /  34875.8 hPa Calm     78 % 0.0 in /  0 mm 19.0 W/m2 BKN
08:37 5.0 °F /  -15 °C 1.7 °F /  -16.8 °C 1030.0 in /  34875.8 hPa Calm     79 % 0.0 in /  0 mm 25.0 W/m2 BKN
08:38 5.0 °F /  -15 °C 1.7 °F /  -16.8 °C 1030.0 in /  34875.8 hPa Calm     79 % 0.0 in /  0 mm 28.0 W/m2 BKN
08:43 5.6 °F /  -14.7 °C 2.6 °F /  -16.3 °C 1030.0 in /  34875.8 hPa West 5.6 mph /  9 km/h 5.6 mph /  9 km/h 81 % 0.0 in /  0 mm 37.0 W/m2 BKN
08:53 6.1 °F /  -14.4 °C 3.1 °F /  -16.1 °C 1030.0 in /  34875.8 hPa West 7.4 mph /  11.9 km/h 7.4 mph /  11.9 km/h 81 % 0.0 in /  0 mm 70.0 W/m2 FEW
08:58 6.7 °F /  -14.1 °C 3.4 °F /  -15.9 °C 1030.0 in /  34875.8 hPa Calm     80 % 0.0 in /  0 mm 76.0 W/m2 FEW
09:08 7.2 °F /  -13.8 °C 3.8 °F /  -15.7 °C 1030.0 in /  34875.8 hPa West 7.4 mph /  11.9 km/h 7.4 mph /  11.9 km/h 79 % 0.0 in /  0 mm 93.0 W/m2 CLR
09:13 7.2 °F /  -13.8 °C 3.7 °F /  -15.7 °C 1030.0 in /  34875.8 hPa WNW 7.4 mph /  11.9 km/h 7.4 mph /  11.9 km/h 78 % 0.0 in /  0 mm 105.0 W/m2 CLR
09:18 7.8 °F /  -13.4 °C 4.0 °F /  -15.6 °C 1030.0 in /  34875.8 hPa West 13.0 mph /  20.9 km/h 13.0 mph /  20.9 km/h 77 % 0.0 in /  0 mm 104.0 W/m2 CLR
09:23 8.3 °F /  -13.2 °C 4.3 °F /  -15.4 °C 1030.4 in /  34889.3 hPa West 11.1 mph /  17.9 km/h 11.1 mph /  17.9 km/h 76 % 0.0 in /  0 mm 118.0 W/m2 CLR
09:28 8.9 °F /  -12.8 °C 4.7 °F /  -15.2 °C 1030.4 in /  34889.3 hPa WNW 14.8 mph /  23.8 km/h 14.8 mph /  23.8 km/h 75 % 0.0 in /  0 mm 127.0 W/m2 CLR
09:33 9.4 °F /  -12.6 °C 5.2 °F /  -14.9 °C 1030.4 in /  34889.3 hPa WNW 14.8 mph /  23.8 km/h 14.8 mph /  23.8 km/h 75 % 0.0 in /  0 mm 135.0 W/m2 CLR
09:39 10.6 °F /  -11.9 °C 5.9 °F /  -14.5 °C 1030.4 in /  34889.3 hPa West 13.0 mph /  20.9 km/h 13.0 mph /  20.9 km/h 73 % 0.0 in /  0 mm 144.0 W/m2 CLR
09:44 11.7 °F /  -11.3 °C 7.0 °F /  -13.9 °C 1030.4 in /  34889.3 hPa West 16.7 mph /  26.9 km/h 16.7 mph /  26.9 km/h 73 % 0.0 in /  0 mm 141.0 W/m2 CLR
09:49 12.2 °F /  -11 °C 7.5 °F /  -13.6 °C 1030.7 in /  34899.5 hPa WNW 14.8 mph /  23.8 km/h 14.8 mph /  23.8 km/h 73 % 0.0 in /  0 mm 163.0 W/m2 CLR
09:54 12.8 °F /  -10.7 °C 7.8 °F /  -13.4 °C 1030.4 in /  34889.3 hPa NNW 9.3 mph /  15 km/h 9.3 mph /  15 km/h 72 % 0.0 in /  0 mm 204.0 W/m2 CLR
09:59 13.3 °F /  -10.4 °C 8.2 °F /  -13.2 °C 1030.7 in /  34899.5 hPa WNW 14.8 mph /  23.8 km/h 14.8 mph /  23.8 km/h 71 % 0.0 in /  0 mm 167.0 W/m2 CLR
10:05 13.3 °F /  -10.4 °C 8.0 °F /  -13.3 °C 1030.7 in /  34899.5 hPa NW 11.1 mph /  17.9 km/h 11.1 mph /  17.9 km/h 70 % 0.0 in /  0 mm 158.0 W/m2 CLR
10:10 13.9 °F /  -10.1 °C 8.3 °F /  -13.2 °C 1030.7 in /  34899.5 hPa WNW 20.9 mph /  33.6 km/h 20.9 mph /  33.6 km/h 69 % 0.0 in /  0 mm 156.0 W/m2 CLR
10:15 13.9 °F /  -10.1 °C 8.3 °F /  -13.2 °C 1030.7 in /  34899.5 hPa WNW 29.6 mph /  47.6 km/h 29.6 mph /  47.6 km/h 69 % 0.0 in /  0 mm 186.0 W/m2 CLR
10:20 13.9 °F /  -10.1 °C 8.3 °F /  -13.2 °C 1030.7 in /  34899.5 hPa West 14.8 mph /  23.8 km/h 14.8 mph /  23.8 km/h 69 % 0.0 in /  0 mm 160.0 W/m2 CLR
10:25 13.9 °F /  -10.1 °C 8.3 °F /  -13.2 °C 1031.0 in /  34909.7 hPa NW 11.1 mph /  17.9 km/h 11.1 mph /  17.9 km/h 69 % 0.0 in /  0 mm 155.0 W/m2 CLR
10:40 13.9 °F /  -10.1 °C 8.1 °F /  -13.3 °C 1031.0 in /  34909.7 hPa WNW 22.2 mph /  35.7 km/h 22.2 mph /  35.7 km/h 68 % 0.0 in /  0 mm 163.0 W/m2 CLR
10:50 14.4 °F /  -9.8 °C 8.6 °F /  -13 °C 1031.0 in /  34909.7 hPa WNW 18.5 mph /  29.8 km/h 18.5 mph /  29.8 km/h 68 % 0.0 in /  0 mm 165.0 W/m2 CLR
10:55 14.4 °F /  -9.8 °C 8.6 °F /  -13 °C 1031.0 in /  34909.7 hPa WNW 22.2 mph /  35.7 km/h 22.2 mph /  35.7 km/h 68 % 0.0 in /  0 mm 165.0 W/m2 CLR
11:00 14.4 °F /  -9.8 °C 8.6 °F /  -13 °C 1031.0 in /  34909.7 hPa West 7.4 mph /  11.9 km/h 7.4 mph /  11.9 km/h 68 % 0.0 in /  0 mm 167.0 W/m2 CLR
11:05 14.4 °F /  -9.8 °C 8.4 °F /  -13.1 °C 1031.0 in /  34909.7 hPa NW 18.5 mph /  29.8 km/h 18.5 mph /  29.8 km/h 67 % 0.0 in /  0 mm 183.0 W/m2 CLR
11:10 14.4 °F /  -9.8 °C 8.4 °F /  -13.1 °C 1031.4 in /  34923.2 hPa West 24.1 mph /  38.8 km/h 24.1 mph /  38.8 km/h 67 % 0.0 in /  0 mm 165.0 W/m2 CLR
11:15 14.4 °F /  -9.8 °C 8.4 °F /  -13.1 °C 1031.4 in /  34923.2 hPa WNW 22.2 mph /  35.7 km/h 22.2 mph /  35.7 km/h 67 % 0.0 in /  0 mm 165.0 W/m2 CLR
11:20 14.4 °F /  -9.8 °C 8.6 °F /  -13 °C 1031.4 in /  34923.2 hPa NW 22.2 mph /  35.7 km/h 22.2 mph /  35.7 km/h 68 % 0.0 in /  0 mm 144.0 W/m2 CLR
11:25 14.4 °F /  -9.8 °C 8.6 °F /  -13 °C 1031.0 in /  34909.7 hPa NW 18.5 mph /  29.8 km/h 18.5 mph /  29.8 km/h 68 % 0.0 in /  0 mm 151.0 W/m2 CLR
11:30 14.4 °F /  -9.8 °C 8.6 °F /  -13 °C 1031.4 in /  34923.2 hPa NW 17.7 mph /  28.5 km/h 17.7 mph /  28.5 km/h 68 % 0.0 in /  0 mm 216.0 W/m2 CLR
11:35 15.0 °F /  -9.4 °C 9.1 °F /  -12.7 °C 1031.0 in /  34909.7 hPa WNW 20.4 mph /  32.8 km/h 20.4 mph /  32.8 km/h 68 % 0.0 in /  0 mm 227.0 W/m2 CLR
11:40 15.0 °F /  -9.4 °C 8.9 °F /  -12.8 °C 1031.0 in /  34909.7 hPa WNW 18.5 mph /  29.8 km/h 18.5 mph /  29.8 km/h 67 % 0.0 in /  0 mm 171.0 W/m2 CLR
11:45 15.0 °F /  -9.4 °C 8.9 °F /  -12.8 °C 1031.0 in /  34909.7 hPa NW 25.9 mph /  41.7 km/h 25.9 mph /  41.7 km/h 67 % 0.0 in /  0 mm 251.0 W/m2 CLR
11:50 15.0 °F /  -9.4 °C 8.9 °F /  -12.8 °C 1031.0 in /  34909.7 hPa WNW 22.2 mph /  35.7 km/h 22.2 mph /  35.7 km/h 67 % 0.0 in /  0 mm 216.0 W/m2 CLR
11:55 15.0 °F /  -9.4 °C 8.9 °F /  -12.8 °C 1031.0 in /  34909.7 hPa NW 18.5 mph /  29.8 km/h 18.5 mph /  29.8 km/h 67 % 0.0 in /  0 mm 241.0 W/m2 CLR
12:00 15.0 °F /  -9.4 °C 8.9 °F /  -12.8 °C 1031.0 in /  34909.7 hPa NW 18.5 mph /  29.8 km/h 18.5 mph /  29.8 km/h 67 % 0.0 in /  0 mm 292.0 W/m2 CLR
12:05 15.6 °F /  -9.1 °C 9.4 °F /  -12.6 °C 1031.0 in /  34909.7 hPa NW 14.5 mph /  23.3 km/h 14.5 mph /  23.3 km/h 67 % 0.0 in /  0 mm 278.0 W/m2 CLR
12:15 15.6 °F /  -9.1 °C 9.4 °F /  -12.6 °C 1031.0 in /  34909.7 hPa NW 20.4 mph /  32.8 km/h 20.4 mph /  32.8 km/h 67 % 0.0 in /  0 mm 325.0 W/m2 CLR
12:20 15.6 °F /  -9.1 °C 9.0 °F /  -12.8 °C 1031.0 in /  34909.7 hPa WNW 22.5 mph /  36.2 km/h 22.5 mph /  36.2 km/h 65 % 0.0 in /  0 mm 343.0 W/m2 CLR
12:25 15.6 °F /  -9.1 °C 9.2 °F /  -12.7 °C 1030.7 in /  34899.5 hPa NNW 18.5 mph /  29.8 km/h 18.5 mph /  29.8 km/h 66 % 0.0 in /  0 mm 339.0 W/m2 CLR
12:40 15.6 °F /  -9.1 °C 9.0 °F /  -12.8 °C 1030.7 in /  34899.5 hPa North 31.5 mph /  50.7 km/h 31.5 mph /  50.7 km/h 65 % 0.0 in /  0 mm 246.0 W/m2 CLR
12:45 15.6 °F /  -9.1 °C 9.2 °F /  -12.7 °C 1030.7 in /  34899.5 hPa NW 16.7 mph /  26.9 km/h 16.7 mph /  26.9 km/h 66 % 0.0 in /  0 mm 246.0 W/m2 CLR
12:50 15.6 °F /  -9.1 °C 9.0 °F /  -12.8 °C 1030.4 in /  34889.3 hPa NNW 31.5 mph /  50.7 km/h 31.5 mph /  50.7 km/h 65 % 0.0 in /  0 mm 346.0 W/m2 CLR
12:55 16.1 °F /  -8.8 °C 9.5 °F /  -12.5 °C 1030.4 in /  34889.3 hPa NNW 22.2 mph /  35.7 km/h 22.2 mph /  35.7 km/h 65 % 0.0 in /  0 mm 418.0 W/m2 CLR
13:00 16.1 °F /  -8.8 °C 9.5 °F /  -12.5 °C 1030.4 in /  34889.3 hPa NNW 30.6 mph /  49.2 km/h 30.6 mph /  49.2 km/h 65 % 0.0 in /  0 mm 279.0 W/m2 CLR
13:05 16.1 °F /  -8.8 °C 9.5 °F /  -12.5 °C 1030.4 in /  34889.3 hPa North 22.2 mph /  35.7 km/h 22.2 mph /  35.7 km/h 65 % 0.0 in /  0 mm 346.0 W/m2 CLR
13:10 16.7 °F /  -8.5 °C 9.8 °F /  -12.3 °C 1030.4 in /  34889.3 hPa North 27.8 mph /  44.7 km/h 27.8 mph /  44.7 km/h 64 % 0.0 in /  0 mm 628.0 W/m2 CLR
13:15 17.2 °F /  -8.2 °C 10.1 °F /  -12.2 °C 1030.0 in /  34875.8 hPa NNW 31.5 mph /  50.7 km/h 31.5 mph /  50.7 km/h 63 % 0.0 in /  0 mm 271.0 W/m2 CLR
13:20 16.7 °F /  -8.5 °C 9.6 °F /  -12.4 °C 1030.0 in /  34875.8 hPa North 27.8 mph /  44.7 km/h 27.8 mph /  44.7 km/h 63 % 0.0 in /  0 mm 285.0 W/m2 CLR
13:25 16.1 °F /  -8.8 °C 9.3 °F /  -12.6 °C 1030.0 in /  34875.8 hPa North 25.9 mph /  41.7 km/h 25.9 mph /  41.7 km/h 64 % 0.0 in /  0 mm 587.0 W/m2 CLR
13:30 16.7 °F /  -8.5 °C 9.8 °F /  -12.3 °C 1030.0 in /  34875.8 hPa North 27.8 mph /  44.7 km/h 27.8 mph /  44.7 km/h 64 % 0.0 in /  0 mm 278.0 W/m2 CLR
13:35 17.2 °F /  -8.2 °C 10.3 °F /  -12.1 °C 1030.0 in /  34875.8 hPa NNW 22.2 mph /  35.7 km/h 22.2 mph /  35.7 km/h 64 % 0.0 in /  0 mm 390.0 W/m2 CLR
13:40 16.7 °F /  -8.5 °C 9.8 °F /  -12.3 °C 1029.7 in /  34865.6 hPa NW 16.1 mph /  25.9 km/h 16.1 mph /  25.9 km/h 64 % 0.0 in /  0 mm 613.0 W/m2 CLR
13:45 17.2 °F /  -8.2 °C 10.1 °F /  -12.2 °C 1029.7 in /  34865.6 hPa North 22.2 mph /  35.7 km/h 22.2 mph /  35.7 km/h 63 % 0.0 in /  0 mm 582.0 W/m2 CLR
13:55 17.8 °F /  -7.9 °C 10.2 °F /  -12.1 °C 1029.3 in /  34852.1 hPa North 25.9 mph /  41.7 km/h 25.9 mph /  41.7 km/h 61 % 0.0 in /  0 mm 524.0 W/m2 CLR
14:10 17.8 °F /  -7.9 °C 10.4 °F /  -12 °C 1029.3 in /  34852.1 hPa North 27.8 mph /  44.7 km/h 27.8 mph /  44.7 km/h 62 % 0.0 in /  0 mm 517.0 W/m2 CLR
14:20 17.8 °F /  -7.9 °C 10.2 °F /  -12.1 °C 1029.3 in /  34852.1 hPa NNW 24.1 mph /  38.8 km/h 24.1 mph /  38.8 km/h 61 % 0.0 in /  0 mm 478.0 W/m2 CLR
14:30 17.2 °F /  -8.2 °C 9.4 °F /  -12.6 °C 1029.0 in /  34841.9 hPa North 27.8 mph /  44.7 km/h 27.8 mph /  44.7 km/h 60 % 0.0 in /  0 mm 343.0 W/m2 CLR
14:35 17.2 °F /  -8.2 °C 9.9 °F /  -12.3 °C 1029.0 in /  34841.9 hPa North 27.8 mph /  44.7 km/h 27.8 mph /  44.7 km/h 62 % 0.0 in /  0 mm 355.0 W/m2 CLR
14:40 17.2 °F /  -8.2 °C 9.9 °F /  -12.3 °C 1029.0 in /  34841.9 hPa NNE 20.9 mph /  33.6 km/h 20.9 mph /  33.6 km/h 62 % 0.0 in /  0 mm 343.0 W/m2 CLR
14:45 17.2 °F /  -8.2 °C 9.9 °F /  -12.3 °C 1029.0 in /  34841.9 hPa NW 14.8 mph /  23.8 km/h 14.8 mph /  23.8 km/h 62 % 0.0 in /  0 mm 330.0 W/m2 CLR
14:50 17.2 °F /  -8.2 °C 9.9 °F /  -12.3 °C 1029.0 in /  34841.9 hPa North 25.9 mph /  41.7 km/h 25.9 mph /  41.7 km/h 62 % 0.0 in /  0 mm 323.0 W/m2 CLR
14:55 16.7 °F /  -8.5 °C 9.1 °F /  -12.7 °C 1029.0 in /  34841.9 hPa North 25.9 mph /  41.7 km/h 25.9 mph /  41.7 km/h 61 % 0.0 in /  0 mm 323.0 W/m2 CLR
15:00 16.7 °F /  -8.5 °C 9.6 °F /  -12.4 °C 1029.0 in /  34841.9 hPa North 22.5 mph /  36.2 km/h 22.5 mph /  36.2 km/h 63 % 0.0 in /  0 mm 309.0 W/m2 CLR
15:05 17.2 °F /  -8.2 °C 10.1 °F /  -12.2 °C 1029.0 in /  34841.9 hPa NNW 22.2 mph /  35.7 km/h 22.2 mph /  35.7 km/h 63 % 0.0 in /  0 mm 327.0 W/m2 CLR
15:10 17.2 °F /  -8.2 °C 9.9 °F /  -12.3 °C 1029.0 in /  34841.9 hPa NW 14.8 mph /  23.8 km/h 14.8 mph /  23.8 km/h 62 % 0.0 in /  0 mm 330.0 W/m2 CLR
15:25 17.2 °F /  -8.2 °C 9.9 °F /  -12.3 °C 1029.0 in /  34841.9 hPa NNW 18.5 mph /  29.8 km/h 18.5 mph /  29.8 km/h 62 % 0.0 in /  0 mm 241.0 W/m2 CLR
15:30 17.2 °F /  -8.2 °C 9.9 °F /  -12.3 °C 1028.7 in /  34831.8 hPa NW 22.2 mph /  35.7 km/h 22.2 mph /  35.7 km/h 62 % 0.0 in /  0 mm 378.0 W/m2 CLR
15:35 17.8 °F /  -7.9 °C 10.4 °F /  -12 °C 1028.7 in /  34831.8 hPa NNW 16.7 mph /  26.9 km/h 16.7 mph /  26.9 km/h 62 % 0.0 in /  0 mm 401.0 W/m2 CLR
15:40 17.8 °F /  -7.9 °C 9.9 °F /  -12.3 °C 1028.7 in /  34831.8 hPa NW 24.1 mph /  38.8 km/h 24.1 mph /  38.8 km/h 60 % 0.0 in /  0 mm 330.0 W/m2 CLR
15:45 17.8 °F /  -7.9 °C 10.2 °F /  -12.1 °C 1029.0 in /  34841.9 hPa NNW 20.4 mph /  32.8 km/h 20.4 mph /  32.8 km/h 61 % 0.0 in /  0 mm 352.0 W/m2 CLR
16:00 17.8 °F /  -7.9 °C 9.9 °F /  -12.3 °C 1029.0 in /  34841.9 hPa NNW 22.5 mph /  36.2 km/h 22.5 mph /  36.2 km/h 60 % 0.0 in /  0 mm 306.0 W/m2 CLR
16:05 17.2 °F /  -8.2 °C 9.4 °F /  -12.6 °C 1029.0 in /  34841.9 hPa NW 16.7 mph /  26.9 km/h 16.7 mph /  26.9 km/h 60 % 0.0 in /  0 mm 213.0 W/m2 CLR
16:07 17.2 °F /  -8.2 °C 9.4 °F /  -12.6 °C 1029.0 in /  34841.9 hPa North 20.4 mph /  32.8 km/h 20.4 mph /  32.8 km/h 60 % 0.0 in /  0 mm 221.0 W/m2 CLR
16:12 17.2 °F /  -8.2 °C 9.4 °F /  -12.6 °C 1029.0 in /  34841.9 hPa NW 20.4 mph /  32.8 km/h 20.4 mph /  32.8 km/h 60 % 0.0 in /  0 mm 216.0 W/m2 CLR
16:17 17.2 °F /  -8.2 °C 9.6 °F /  -12.4 °C 1029.0 in /  34841.9 hPa NNW 22.2 mph /  35.7 km/h 22.2 mph /  35.7 km/h 61 % 0.0 in /  0 mm 137.0 W/m2 CLR
16:22 16.7 °F /  -8.5 °C 9.1 °F /  -12.7 °C 1029.0 in /  34841.9 hPa NNW 18.5 mph /  29.8 km/h 18.5 mph /  29.8 km/h 61 % 0.0 in /  0 mm 179.0 W/m2 CLR
16:27 16.7 °F /  -8.5 °C 9.3 °F /  -12.6 °C 1029.0 in /  34841.9 hPa NNW 11.1 mph /  17.9 km/h 11.1 mph /  17.9 km/h 62 % 0.0 in /  0 mm 169.0 W/m2 CLR
16:37 16.7 °F /  -8.5 °C 9.1 °F /  -12.7 °C 1029.0 in /  34841.9 hPa NW 18.5 mph /  29.8 km/h 18.5 mph /  29.8 km/h 61 % 0.0 in /  0 mm 128.0 W/m2 CLR
16:42 16.7 °F /  -8.5 °C 9.3 °F /  -12.6 °C 1029.0 in /  34841.9 hPa NNW 13.0 mph /  20.9 km/h 13.0 mph /  20.9 km/h 62 % 0.0 in /  0 mm 127.0 W/m2 CLR
16:47 16.1 °F /  -8.8 °C 8.6 °F /  -13 °C 1029.0 in /  34841.9 hPa NNW 16.7 mph /  26.9 km/h 16.7 mph /  26.9 km/h 61 % 0.0 in /  0 mm 114.0 W/m2 CLR
16:52 16.1 °F /  -8.8 °C 8.8 °F /  -12.9 °C 1029.0 in /  34841.9 hPa NW 3.7 mph /  6 km/h   62 % 0.0 in /  0 mm 105.0 W/m2 CLR
16:57 16.1 °F /  -8.8 °C 8.8 °F /  -12.9 °C 1029.0 in /  34841.9 hPa Calm     62 % 0.0 in /  0 mm 116.0 W/m2 CLR
17:02 16.1 °F /  -8.8 °C 8.6 °F /  -13 °C 1029.0 in /  34841.9 hPa NW 1.9 mph /  3.1 km/h 1.9 mph /  3.1 km/h 61 % 0.0 in /  0 mm 83.0 W/m2 CLR
17:07 16.1 °F /  -8.8 °C 8.8 °F /  -12.9 °C 1029.0 in /  34841.9 hPa NNW 1.9 mph /  3.1 km/h 1.9 mph /  3.1 km/h 62 % 0.0 in /  0 mm 98.0 W/m2 CLR
17:12 16.1 °F /  -8.8 °C 8.8 °F /  -12.9 °C 1029.0 in /  34841.9 hPa NNW 13.0 mph /  20.9 km/h 13.0 mph /  20.9 km/h 62 % 0.0 in /  0 mm 51.0 W/m2 SCT
17:17 15.6 °F /  -9.1 °C 8.6 °F /  -13 °C 1029.0 in /  34841.9 hPa North 3.7 mph /  6 km/h 3.7 mph /  6 km/h 63 % 0.0 in /  0 mm 60.0 W/m2 SCT
17:22 15.6 °F /  -9.1 °C 8.6 °F /  -13 °C 1029.0 in /  34841.9 hPa NNW 14.8 mph /  23.8 km/h 14.8 mph /  23.8 km/h 63 % 0.0 in /  0 mm 49.0 W/m2 SCT
17:33 15.0 °F /  -9.4 °C 8.2 °F /  -13.2 °C 1029.3 in /  34852.1 hPa NNW 1.9 mph /  3.1 km/h 1.9 mph /  3.1 km/h 64 % 0.0 in /  0 mm 32.0 W/m2 BKN
17:38 15.0 °F /  -9.4 °C 8.2 °F /  -13.2 °C 1029.3 in /  34852.1 hPa Calm     64 % 0.0 in /  0 mm 25.0 W/m2 BKN
17:43 15.0 °F /  -9.4 °C 8.4 °F /  -13.1 °C 1029.3 in /  34852.1 hPa Calm     65 % 0.0 in /  0 mm 18.0 W/m2 BKN
17:48 14.4 °F /  -9.8 °C 7.9 °F /  -13.4 °C 1029.3 in /  34852.1 hPa Calm     65 % 0.0 in /  0 mm 12.0 W/m2 BKN
17:53 13.9 °F /  -10.1 °C 7.6 °F /  -13.6 °C 1029.3 in /  34852.1 hPa Calm     66 % 0.0 in /  0 mm 7.0 W/m2 BKN
18:18 11.7 °F /  -11.3 °C 6.2 °F /  -14.3 °C 1029.7 in /  34865.6 hPa Calm     69 % 0.0 in /  0 mm 0.0 W/m2 CLR
18:23 11.1 °F /  -11.6 °C 5.8 °F /  -14.6 °C 1029.7 in /  34865.6 hPa Calm     70 % 0.0 in /  0 mm 0.0 W/m2 CLR
18:28 11.1 °F /  -11.6 °C 5.8 °F /  -14.6 °C 1029.7 in /  34865.6 hPa Calm     70 % 0.0 in /  0 mm 0.0 W/m2 CLR
18:38 11.1 °F /  -11.6 °C 6.4 °F /  -14.2 °C 1030.0 in /  34875.8 hPa Calm     73 % 0.0 in /  0 mm 0.0 W/m2 CLR
18:43 11.1 °F /  -11.6 °C 6.4 °F /  -14.2 °C 1030.0 in /  34875.8 hPa Calm     73 % 0.0 in /  0 mm 0.0 W/m2 CLR
18:48 11.1 °F /  -11.6 °C 6.4 °F /  -14.2 °C 1030.0 in /  34875.8 hPa Calm     73 % 0.0 in /  0 mm 0.0 W/m2 CLR
18:53 10.6 °F /  -11.9 °C 6.1 °F /  -14.4 °C 1030.4 in /  34889.3 hPa Calm     74 % 0.0 in /  0 mm 0.0 W/m2 CLR
18:58 10.6 °F /  -11.9 °C 6.1 °F /  -14.4 °C 1030.4 in /  34889.3 hPa Calm     74 % 0.0 in /  0 mm 0.0 W/m2 CLR
19:03 10.6 °F /  -11.9 °C 6.3 °F /  -14.3 °C 1030.4 in /  34889.3 hPa Calm     75 % 0.0 in /  0 mm 0.0 W/m2 CLR
19:13 10.0 °F /  -12.2 °C 5.9 °F /  -14.5 °C 1030.4 in /  34889.3 hPa Calm     76 % 0.0 in /  0 mm 0.0 W/m2 CLR
19:18 10.0 °F /  -12.2 °C 5.9 °F /  -14.5 °C 1030.4 in /  34889.3 hPa Calm     76 % 0.0 in /  0 mm 0.0 W/m2 CLR
19:28 9.4 °F /  -12.6 °C 5.6 °F /  -14.7 °C 1030.4 in /  34889.3 hPa Calm     77 % 0.0 in /  0 mm 0.0 W/m2 CLR
19:38 9.4 °F /  -12.6 °C 6.0 °F /  -14.4 °C 1030.7 in /  34899.5 hPa Calm     79 % 0.0 in /  0 mm 0.0 W/m2 CLR
19:43 9.4 °F /  -12.6 °C 6.3 °F /  -14.3 °C 1030.7 in /  34899.5 hPa Calm     81 % 0.0 in /  0 mm 0.0 W/m2 CLR
19:53 8.9 °F /  -12.8 °C 5.6 °F /  -14.7 °C 1030.7 in /  34899.5 hPa Calm     80 % 0.0 in /  0 mm 0.0 W/m2 CLR
19:58 8.3 °F /  -13.2 °C 5.1 °F /  -14.9 °C 1030.7 in /  34899.5 hPa Calm     80 % 0.0 in /  0 mm 0.0 W/m2 CLR
20:03 8.3 °F /  -13.2 °C 5.3 °F /  -14.8 °C 1030.7 in /  34899.5 hPa Calm     81 % 0.0 in /  0 mm 0.0 W/m2 CLR
20:23 7.8 °F /  -13.4 °C 4.9 °F /  -15.1 °C 1031.0 in /  34909.7 hPa Calm     82 % 0.0 in /  0 mm 0.0 W/m2 CLR
20:28 7.8 °F /  -13.4 °C 5.1 °F /  -14.9 °C 1031.0 in /  34909.7 hPa Calm     83 % 0.0 in /  0 mm 0.0 W/m2 CLR
20:34 7.2 °F /  -13.8 °C 4.5 °F /  -15.3 °C 1031.0 in /  34909.7 hPa Calm     83 % 0.0 in /  0 mm 0.0 W/m2 CLR
20:39 7.2 °F /  -13.8 °C 4.7 °F /  -15.2 °C 1031.0 in /  34909.7 hPa Calm     84 % 0.0 in /  0 mm 0.0 W/m2 CLR
20:44 7.2 °F /  -13.8 °C 4.7 °F /  -15.2 °C 1031.0 in /  34909.7 hPa Calm     84 % 0.0 in /  0 mm 0.0 W/m2 CLR
20:49 7.8 °F /  -13.4 °C 5.2 °F /  -14.9 °C 1031.0 in /  34909.7 hPa Calm     84 % 0.0 in /  0 mm 0.0 W/m2 CLR
20:54 7.8 °F /  -13.4 °C 5.2 °F /  -14.9 °C 1031.0 in /  34909.7 hPa Calm     84 % 0.0 in /  0 mm 0.0 W/m2 CLR
20:59 7.2 °F /  -13.8 °C 4.7 °F /  -15.2 °C 1031.0 in /  34909.7 hPa Calm     84 % 0.0 in /  0 mm 0.0 W/m2 CLR
21:04 6.7 °F /  -14.1 °C 4.3 °F /  -15.4 °C 1031.0 in /  34909.7 hPa Calm     85 % 0.0 in /  0 mm 0.0 W/m2 CLR
21:09 6.7 °F /  -14.1 °C 4.3 °F /  -15.4 °C 1031.0 in /  34909.7 hPa Calm     85 % 0.0 in /  0 mm 0.0 W/m2 CLR
21:14 6.7 °F /  -14.1 °C 4.5 °F /  -15.3 °C 1031.0 in /  34909.7 hPa Calm     86 % 0.0 in /  0 mm 0.0 W/m2 CLR
21:19 6.7 °F /  -14.1 °C 4.5 °F /  -15.3 °C 1031.0 in /  34909.7 hPa Calm     86 % 0.0 in /  0 mm 0.0 W/m2 CLR
21:24 6.7 °F /  -14.1 °C 4.5 °F /  -15.3 °C 1031.0 in /  34909.7 hPa Calm     86 % 0.0 in /  0 mm 0.0 W/m2 CLR
21:29 6.7 °F /  -14.1 °C 4.5 °F /  -15.3 °C 1031.0 in /  34909.7 hPa Calm     86 % 0.0 in /  0 mm 0.0 W/m2 CLR
21:34 6.7 °F /  -14.1 °C 4.5 °F /  -15.3 °C 1031.0 in /  34909.7 hPa Calm     86 % 0.0 in /  0 mm 0.0 W/m2 CLR
21:39 6.1 °F /  -14.4 °C 3.9 °F /  -15.6 °C 1031.0 in /  34909.7 hPa Calm     86 % 0.0 in /  0 mm 0.0 W/m2 CLR
21:49 6.1 °F /  -14.4 °C 4.1 °F /  -15.5 °C 1031.4 in /  34923.2 hPa Calm     87 % 0.0 in /  0 mm 0.0 W/m2 CLR
21:54 6.1 °F /  -14.4 °C 4.1 °F /  -15.5 °C 1031.4 in /  34923.2 hPa Calm     87 % 0.0 in /  0 mm 0.0 W/m2 CLR
21:59 6.1 °F /  -14.4 °C 4.1 °F /  -15.5 °C 1031.4 in /  34923.2 hPa Calm     87 % 0.0 in /  0 mm 0.0 W/m2 CLR
22:04 6.1 °F /  -14.4 °C 4.1 °F /  -15.5 °C 1031.4 in /  34923.2 hPa Calm     87 % 0.0 in /  0 mm 0.0 W/m2 CLR
22:09 6.1 °F /  -14.4 °C 4.1 °F /  -15.5 °C 1031.4 in /  34923.2 hPa Calm     87 % 0.0 in /  0 mm 0.0 W/m2 CLR
22:14 5.6 °F /  -14.7 °C 3.6 °F /  -15.8 °C 1031.4 in /  34923.2 hPa Calm     87 % 0.0 in /  0 mm 0.0 W/m2 CLR
22:19 6.1 °F /  -14.4 °C 4.1 °F /  -15.5 °C 1031.4 in /  34923.2 hPa Calm     87 % 0.0 in /  0 mm 0.0 W/m2 CLR
22:24 6.1 °F /  -14.4 °C 4.3 °F /  -15.4 °C 1031.4 in /  34923.2 hPa Calm     88 % 0.0 in /  0 mm 0.0 W/m2 CLR
22:29 6.1 °F /  -14.4 °C 4.3 °F /  -15.4 °C 1031.4 in /  34923.2 hPa Calm     88 % 0.0 in /  0 mm 0.0 W/m2 CLR
22:44 5.6 °F /  -14.7 °C 3.7 °F /  -15.7 °C 1031.4 in /  34923.2 hPa Calm     88 % 0.0 in /  0 mm 0.0 W/m2 CLR
22:49 5.6 °F /  -14.7 °C 3.7 °F /  -15.7 °C 1031.4 in /  34923.2 hPa Calm     88 % 0.0 in /  0 mm 0.0 W/m2 CLR
22:54 5.6 °F /  -14.7 °C 3.9 °F /  -15.6 °C 1031.4 in /  34923.2 hPa Calm     89 % 0.0 in /  0 mm 0.0 W/m2 CLR
23:05 5.0 °F /  -15 °C 3.3 °F /  -15.9 °C 1031.4 in /  34923.2 hPa Calm     89 % 0.0 in /  0 mm 0.0 W/m2 CLR
23:10 5.0 °F /  -15 °C 3.3 °F /  -15.9 °C 1031.4 in /  34923.2 hPa Calm     89 % 0.0 in /  0 mm 0.0 W/m2 CLR
23:12 5.0 °F /  -15 °C 3.3 °F /  -15.9 °C 1031.7 in /  34933.4 hPa Calm     89 % 0.0 in /  0 mm 0.0 W/m2 CLR
23:17 5.0 °F /  -15 °C 3.3 °F /  -15.9 °C 1031.4 in /  34923.2 hPa Calm     89 % 0.0 in /  0 mm 0.0 W/m2 CLR
23:27 5.0 °F /  -15 °C 3.3 °F /  -15.9 °C 1031.7 in /  34933.4 hPa Calm     89 % 0.0 in /  0 mm 0.0 W/m2 CLR
23:32 5.0 °F /  -15 °C 3.3 °F /  -15.9 °C 1031.7 in /  34933.4 hPa Calm     89 % 0.0 in /  0 mm 0.0 W/m2 CLR
23:37 4.4 °F /  -15.3 °C 2.8 °F /  -16.2 °C 1031.7 in /  34933.4 hPa Calm     89 % 0.0 in /  0 mm 0.0 W/m2 CLR
23:42 4.4 °F /  -15.3 °C 2.9 °F /  -16.2 °C 1031.7 in /  34933.4 hPa Calm     90 % 0.0 in /  0 mm 0.0 W/m2 CLR
23:47 4.4 °F /  -15.3 °C 2.8 °F /  -16.2 °C 1031.7 in /  34933.4 hPa Calm     89 % 0.0 in /  0 mm 0.0 W/m2 CLR
23:57 4.4 °F /  -15.3 °C 2.9 °F /  -16.2 °C 1031.7 in /  34933.4 hPa Calm     90 % 0.0 in /  0 mm 0.0 W/m2 CLR
Lo Temps de Massalio
Compliments of Weather Underground - 1 mb